createdAt,value
2023-05-29T00:00:58.914Z,34.12
2023-05-29T00:01:58.968Z,34.11
2023-05-29T00:02:59.112Z,34.17
2023-05-29T00:03:59.382Z,34.15
2023-05-29T00:04:59.249Z,34.16
2023-05-29T00:05:59.202Z,34.15
2023-05-29T00:06:59.259Z,34.18
2023-05-29T00:07:59.325Z,34.17
2023-05-29T00:08:59.384Z,34.16
2023-05-29T00:09:59.443Z,34.15
2023-05-29T00:10:59.498Z,34.14
2023-05-29T00:11:59.542Z,34.14
2023-05-29T00:12:59.633Z,34.12
2023-05-29T00:13:59.761Z,34.11
2023-05-29T00:14:59.762Z,34.12
2023-05-29T00:15:59.811Z,34.15
2023-05-29T00:16:59.971Z,34.12
2023-05-29T00:17:59.990Z,34.11
2023-05-29T00:18:59.990Z,34.12
2023-05-29T00:20:00.609Z,34.15
2023-05-29T00:21:00.147Z,34.11
2023-05-29T00:22:00.159Z,34.12
2023-05-29T00:23:00.220Z,34.11
2023-05-29T00:24:00.302Z,34.12
2023-05-29T00:25:00.344Z,34.08
2023-05-29T00:26:00.392Z,34.11
2023-05-29T00:27:00.477Z,34.12
2023-05-29T00:28:00.521Z,34.13
2023-05-29T00:29:00.677Z,34.09
2023-05-29T00:30:00.680Z,34.14
2023-05-29T00:31:00.717Z,34.10
2023-05-29T00:32:00.822Z,34.14
2023-05-29T00:33:00.916Z,34.16
2023-05-29T00:34:00.867Z,34.15
2023-05-29T00:35:00.966Z,34.10
2023-05-29T00:36:01.022Z,34.11
2023-05-29T00:37:01.137Z,34.06
2023-05-29T00:38:01.118Z,34.09
2023-05-29T00:39:01.177Z,34.08
2023-05-29T00:40:01.263Z,34.04
2023-05-29T00:41:01.329Z,34.07
2023-05-29T00:42:01.370Z,34.02
2023-05-29T00:43:01.447Z,34.07
2023-05-29T00:44:01.505Z,34.07
2023-05-29T00:45:01.571Z,34.04
2023-05-29T00:46:01.684Z,34.05
2023-05-29T00:47:01.683Z,34.02
2023-05-29T00:48:01.764Z,34.01
2023-05-29T00:49:01.793Z,33.99
2023-05-29T00:50:01.852Z,34.03
2023-05-29T00:51:01.954Z,34.03
2023-05-29T00:52:01.999Z,34.01
2023-05-29T00:53:02.038Z,34.01
2023-05-29T00:54:02.110Z,34.02
2023-05-29T00:55:02.157Z,34.00
2023-05-29T00:56:02.228Z,33.99
2023-05-29T00:57:02.296Z,33.98
2023-05-29T00:58:02.384Z,33.96
2023-05-29T00:59:02.440Z,33.94
2023-05-29T01:00:02.491Z,33.95
2023-05-29T01:01:02.615Z,33.89
2023-05-29T01:02:02.671Z,33.94
2023-05-29T01:03:02.751Z,33.94
2023-05-29T01:04:02.716Z,33.92
2023-05-29T01:05:02.779Z,33.91
2023-05-29T01:06:02.851Z,33.91
2023-05-29T01:07:02.897Z,33.91
2023-05-29T01:08:02.976Z,33.92
2023-05-29T01:09:03.065Z,33.88
2023-05-29T01:10:03.058Z,33.90
2023-05-29T01:11:03.146Z,33.85
2023-05-29T01:12:03.231Z,33.88
2023-05-29T01:13:03.270Z,33.85
2023-05-29T01:14:03.361Z,33.86
2023-05-29T01:15:03.439Z,33.86
2023-05-29T01:16:03.488Z,33.84
2023-05-29T01:17:03.572Z,33.84
2023-05-29T01:18:03.580Z,33.82
2023-05-29T01:19:03.615Z,33.83
2023-05-29T01:20:03.681Z,33.82
2023-05-29T01:21:03.754Z,33.80
2023-05-29T01:22:03.806Z,33.79
2023-05-29T01:23:03.875Z,33.75
2023-05-29T01:24:03.892Z,33.78
2023-05-29T01:25:03.995Z,33.75
2023-05-29T01:26:04.028Z,33.77
2023-05-29T01:27:04.106Z,33.73
2023-05-29T01:28:04.155Z,33.73
2023-05-29T01:29:04.195Z,33.75
2023-05-29T01:30:04.270Z,33.77
2023-05-29T01:31:04.343Z,33.73
2023-05-29T01:32:04.373Z,33.78
2023-05-29T01:33:04.496Z,33.76
2023-05-29T01:34:04.538Z,33.72
2023-05-29T01:35:04.563Z,33.73
2023-05-29T01:36:04.606Z,33.74
2023-05-29T01:37:04.735Z,33.74
2023-05-29T01:38:04.750Z,33.73
2023-05-29T01:39:04.804Z,33.71
2023-05-29T01:40:04.852Z,33.69
2023-05-29T01:41:04.935Z,33.69
2023-05-29T01:42:04.962Z,33.70
2023-05-29T01:43:05.027Z,33.67
2023-05-29T01:44:05.121Z,33.68
2023-05-29T01:45:05.153Z,33.64
2023-05-29T01:46:05.229Z,33.63
2023-05-29T01:47:05.288Z,33.64
2023-05-29T01:48:05.388Z,33.62
2023-05-29T01:49:05.357Z,33.58
2023-05-29T01:50:05.453Z,33.57
2023-05-29T01:51:05.478Z,33.56
2023-05-29T01:52:05.540Z,33.54
2023-05-29T01:53:05.623Z,33.52
2023-05-29T01:54:05.678Z,33.58
2023-05-29T01:55:05.719Z,33.51
2023-05-29T01:56:05.745Z,33.51
2023-05-29T01:57:05.883Z,33.51
2023-05-29T01:58:05.843Z,33.55
2023-05-29T01:59:05.896Z,33.52
2023-05-29T02:00:05.955Z,33.47
2023-05-29T02:01:06.008Z,33.48
2023-05-29T02:02:06.033Z,33.50
2023-05-29T02:03:06.086Z,33.50
2023-05-29T02:04:06.162Z,33.50
2023-05-29T02:05:06.208Z,33.48
2023-05-29T02:06:06.232Z,33.47
2023-05-29T02:07:06.274Z,33.43
2023-05-29T02:08:06.350Z,33.41
2023-05-29T02:09:06.413Z,33.43
2023-05-29T02:10:06.474Z,33.46
2023-05-29T02:11:06.522Z,33.43
2023-05-29T02:12:06.581Z,33.46
2023-05-29T02:13:06.673Z,33.44
2023-05-29T02:14:06.722Z,33.41
2023-05-29T02:15:06.816Z,33.40
2023-05-29T02:16:06.947Z,33.42
2023-05-29T02:17:06.935Z,33.39
2023-05-29T02:18:07.065Z,33.45
2023-05-29T02:19:06.979Z,33.38
2023-05-29T02:20:07.068Z,33.38
2023-05-29T02:21:07.064Z,33.38
2023-05-29T02:22:07.093Z,33.37
2023-05-29T02:23:07.141Z,33.37
2023-05-29T02:24:07.202Z,33.40
2023-05-29T02:25:07.211Z,33.36
2023-05-29T02:26:07.281Z,33.38
2023-05-29T02:27:07.333Z,33.35
2023-05-29T02:28:07.365Z,33.34
2023-05-29T02:29:07.410Z,33.35
2023-05-29T02:30:07.431Z,33.37
2023-05-29T02:31:07.493Z,33.30
2023-05-29T02:32:07.549Z,33.34
2023-05-29T02:33:07.558Z,33.29
2023-05-29T02:34:07.570Z,33.29
2023-05-29T02:35:07.611Z,33.34
2023-05-29T02:36:07.666Z,33.30
2023-05-29T02:37:07.709Z,33.30
2023-05-29T02:38:07.720Z,33.29
2023-05-29T02:39:07.772Z,33.28
2023-05-29T02:40:07.914Z,33.26
2023-05-29T02:41:07.977Z,33.26
2023-05-29T02:42:08.123Z,33.22
2023-05-29T02:43:08.110Z,33.25
2023-05-29T02:44:08.211Z,33.20
2023-05-29T02:45:08.196Z,33.22
2023-05-29T02:46:08.196Z,33.23
2023-05-29T02:47:08.217Z,33.18
2023-05-29T02:48:08.232Z,33.20
2023-05-29T02:49:08.226Z,33.21
2023-05-29T02:50:08.271Z,33.24
2023-05-29T02:51:08.398Z,33.19
2023-05-29T02:52:08.430Z,33.19
2023-05-29T02:53:08.441Z,33.18
2023-05-29T02:54:08.471Z,33.16
2023-05-29T02:55:08.455Z,33.18
2023-05-29T02:56:08.451Z,33.20
2023-05-29T02:57:09.447Z,33.19
2023-05-29T02:58:08.444Z,33.15
2023-05-29T02:59:08.457Z,33.12
2023-05-29T03:00:08.437Z,33.10
2023-05-29T03:01:08.503Z,33.10
2023-05-29T03:02:08.491Z,33.10
2023-05-29T03:03:08.591Z,33.07
2023-05-29T03:04:08.568Z,33.07
2023-05-29T03:05:08.600Z,33.08
2023-05-29T03:06:08.736Z,33.08
2023-05-29T03:07:08.774Z,33.14
2023-05-29T03:08:08.910Z,33.09
2023-05-29T03:09:09.015Z,33.09
2023-05-29T03:10:08.994Z,33.10
2023-05-29T03:11:08.938Z,33.12
2023-05-29T03:12:08.975Z,33.11
2023-05-29T03:13:08.958Z,33.09
2023-05-29T03:14:08.936Z,33.06
2023-05-29T03:15:09.029Z,33.02
2023-05-29T03:16:09.182Z,33.04
2023-05-29T03:17:09.187Z,33.04
2023-05-29T03:18:09.313Z,33.02
2023-05-29T03:19:09.396Z,33.02
2023-05-29T03:20:09.493Z,33.09
2023-05-29T03:21:09.442Z,33.04
2023-05-29T03:22:09.479Z,33.01
2023-05-29T03:23:09.442Z,32.99
2023-05-29T03:24:09.454Z,33.01
2023-05-29T03:25:09.434Z,33.02
2023-05-29T03:26:09.467Z,33.00
2023-05-29T03:27:09.525Z,33.00
2023-05-29T03:28:09.671Z,32.99
2023-05-29T03:29:09.756Z,32.98
2023-05-29T03:30:09.707Z,32.96
2023-05-29T03:31:09.801Z,32.93
2023-05-29T03:32:09.732Z,32.91
2023-05-29T03:33:09.792Z,32.96
2023-05-29T03:34:09.725Z,32.94
2023-05-29T03:35:09.746Z,32.92
2023-05-29T03:36:09.839Z,32.93
2023-05-29T03:37:09.961Z,32.93
2023-05-29T03:38:10.025Z,32.93
2023-05-29T03:39:10.139Z,32.91
2023-05-29T03:40:10.113Z,32.91
2023-05-29T03:41:10.111Z,32.90
2023-05-29T03:42:10.106Z,32.90
2023-05-29T03:43:10.086Z,32.91
2023-05-29T03:44:10.105Z,32.92
2023-05-29T03:45:10.183Z,32.88
2023-05-29T03:46:10.231Z,32.91
2023-05-29T03:47:10.563Z,32.89
2023-05-29T03:48:10.445Z,32.88
2023-05-29T03:49:10.524Z,32.88
2023-05-29T03:50:10.608Z,32.89
2023-05-29T03:51:10.742Z,32.88
2023-05-29T03:52:10.813Z,32.87
2023-05-29T03:53:10.881Z,32.87
2023-05-29T03:54:10.882Z,32.86
2023-05-29T03:55:10.882Z,32.86
2023-05-29T03:56:10.885Z,32.85
2023-05-29T03:57:10.881Z,32.89
2023-05-29T03:58:10.874Z,32.86
2023-05-29T03:59:10.892Z,32.81
2023-05-29T04:00:10.887Z,32.83
2023-05-29T04:01:10.911Z,32.82
2023-05-29T04:02:13.821Z,32.82
2023-05-29T04:03:10.976Z,32.81
2023-05-29T04:04:10.940Z,32.82
2023-05-29T04:05:10.867Z,32.79
2023-05-29T04:06:10.866Z,32.78
2023-05-29T04:07:10.884Z,32.82
2023-05-29T04:08:16.053Z,32.82
2023-05-29T04:09:11.847Z,32.79
2023-05-29T04:10:10.814Z,32.84
2023-05-29T04:11:10.853Z,32.77
2023-05-29T04:12:10.816Z,32.77
2023-05-29T04:13:10.818Z,32.79
2023-05-29T04:14:10.809Z,32.77
2023-05-29T04:15:10.808Z,32.83
2023-05-29T04:16:10.801Z,32.80
2023-05-29T04:17:10.832Z,32.77
2023-05-29T04:18:10.795Z,32.78
2023-05-29T04:19:10.790Z,32.77
2023-05-29T04:20:10.777Z,32.79
2023-05-29T04:21:10.750Z,32.74
2023-05-29T04:22:10.761Z,32.79
2023-05-29T04:23:10.779Z,32.77
2023-05-29T04:24:10.747Z,32.77
2023-05-29T04:25:10.729Z,32.74
2023-05-29T04:26:10.728Z,32.73
2023-05-29T04:27:10.705Z,32.79
2023-05-29T04:28:10.759Z,32.77
2023-05-29T04:29:12.156Z,32.72
2023-05-29T04:30:10.699Z,32.72
2023-05-29T04:31:10.733Z,32.72
2023-05-29T04:32:10.702Z,32.73
2023-05-29T04:33:10.732Z,32.69
2023-05-29T04:34:10.722Z,32.73
2023-05-29T04:35:10.672Z,32.72
2023-05-29T04:36:10.650Z,32.70
2023-05-29T04:37:10.639Z,32.69
2023-05-29T04:38:10.716Z,32.72
2023-05-29T04:39:10.635Z,32.72
2023-05-29T04:40:10.647Z,32.68
2023-05-29T04:41:10.637Z,32.71
2023-05-29T04:42:10.619Z,32.68
2023-05-29T04:43:10.611Z,32.68
2023-05-29T04:44:10.603Z,32.70
2023-05-29T04:45:10.593Z,32.69
2023-05-29T04:46:10.604Z,32.69
2023-05-29T04:47:10.604Z,32.66
2023-05-29T04:48:10.593Z,32.66
2023-05-29T04:49:10.565Z,32.64
2023-05-29T04:50:10.574Z,32.67
2023-05-29T04:51:10.560Z,32.67
2023-05-29T04:52:10.556Z,32.64
2023-05-29T04:53:10.529Z,32.63
2023-05-29T04:54:10.626Z,32.63
2023-05-29T04:55:10.544Z,32.65
2023-05-29T04:56:10.556Z,32.66
2023-05-29T04:57:10.514Z,32.68
2023-05-29T04:58:10.508Z,32.69
2023-05-29T04:59:10.521Z,32.66
2023-05-29T05:01:29.443Z,32.71
2023-05-29T05:02:29.329Z,32.66
2023-05-29T05:03:29.303Z,32.69
2023-05-29T05:04:29.365Z,32.66
2023-05-29T05:05:29.279Z,32.69
2023-05-29T05:06:29.281Z,32.66
2023-05-29T05:07:29.300Z,32.69
2023-05-29T05:08:29.362Z,32.69
2023-05-29T05:09:29.437Z,32.65
2023-05-29T05:10:29.562Z,32.69
2023-05-29T05:11:29.598Z,32.74
2023-05-29T05:12:29.702Z,32.69
2023-05-29T05:13:29.810Z,32.69
2023-05-29T05:14:30.845Z,32.70
2023-05-29T05:15:29.836Z,32.68
2023-05-29T05:16:29.906Z,32.70
2023-05-29T05:17:29.803Z,32.73
2023-05-29T05:18:29.866Z,32.70
2023-05-29T05:19:29.959Z,32.60
2023-05-29T05:20:30.019Z,32.60
2023-05-29T05:21:30.008Z,32.61
2023-05-29T05:22:29.988Z,32.64
2023-05-29T05:23:29.955Z,32.59
2023-05-29T05:24:29.966Z,32.56
2023-05-29T05:25:30.002Z,32.53
2023-05-29T05:26:30.086Z,32.53
2023-05-29T05:27:30.184Z,32.54
2023-05-29T05:28:30.267Z,32.58
2023-05-29T05:29:30.398Z,32.58
2023-05-29T05:30:30.401Z,32.61
2023-05-29T05:31:30.427Z,32.62
2023-05-29T05:32:30.392Z,32.62
2023-05-29T05:33:30.354Z,32.61
2023-05-29T05:34:30.380Z,32.63
2023-05-29T05:35:30.482Z,32.61
2023-05-29T05:36:30.455Z,32.59
2023-05-29T05:37:30.430Z,32.61
2023-05-29T05:38:30.441Z,32.61
2023-05-29T05:39:30.407Z,32.58
2023-05-29T05:40:30.433Z,32.60
2023-05-29T05:41:30.487Z,32.64
2023-05-29T05:42:30.558Z,32.63
2023-05-29T05:43:30.677Z,32.57
2023-05-29T05:44:30.754Z,32.60
2023-05-29T05:45:30.732Z,32.62
2023-05-29T05:46:38.335Z,32.63
2023-05-29T05:47:30.833Z,32.61
2023-05-29T05:48:30.697Z,32.64
2023-05-29T05:49:31.058Z,32.62
2023-05-29T05:50:30.711Z,32.63
2023-05-29T05:51:30.702Z,32.66
2023-05-29T05:52:30.718Z,32.62
2023-05-29T05:53:30.735Z,32.62
2023-05-29T05:54:30.686Z,32.62
2023-05-29T05:55:30.699Z,32.62
2023-05-29T05:56:30.711Z,32.59
2023-05-29T05:57:30.715Z,32.62
2023-05-29T05:58:30.687Z,32.63
2023-05-29T05:59:30.666Z,32.62
2023-05-29T06:00:30.655Z,32.58
2023-05-29T06:01:30.687Z,32.60
2023-05-29T06:02:30.676Z,32.59
2023-05-29T06:03:30.814Z,32.54
2023-05-29T06:04:31.140Z,32.54
2023-05-29T06:05:30.602Z,32.56
2023-05-29T06:06:30.664Z,32.58
2023-05-29T06:07:30.628Z,32.61
2023-05-29T06:08:30.592Z,32.59
2023-05-29T06:09:30.583Z,32.59
2023-05-29T06:10:30.582Z,32.55
2023-05-29T06:11:30.611Z,32.59
2023-05-29T06:12:30.576Z,32.54
2023-05-29T06:13:30.593Z,32.56
2023-05-29T06:14:30.604Z,32.58
2023-05-29T06:15:30.572Z,32.60
2023-05-29T06:16:30.604Z,32.62
2023-05-29T06:17:30.691Z,32.59
2023-05-29T06:18:30.739Z,32.63
2023-05-29T06:19:30.771Z,32.60
2023-05-29T06:20:30.807Z,32.59
2023-05-29T06:21:30.891Z,32.59
2023-05-29T06:22:30.953Z,32.59
2023-05-29T06:23:30.992Z,32.57
2023-05-29T06:24:31.049Z,32.56
2023-05-29T06:25:31.175Z,32.49
2023-05-29T06:26:31.183Z,32.57
2023-05-29T06:27:31.225Z,32.55
2023-05-29T06:28:31.272Z,32.54
2023-05-29T06:29:31.369Z,32.56
2023-05-29T06:30:31.407Z,32.49
2023-05-29T06:31:31.534Z,32.48
2023-05-29T06:32:31.585Z,32.51
2023-05-29T06:33:31.611Z,32.53
2023-05-29T06:34:31.650Z,32.53
2023-05-29T06:35:31.689Z,32.50
2023-05-29T06:36:31.729Z,32.52
2023-05-29T06:37:31.811Z,32.49
2023-05-29T06:38:31.888Z,32.40
2023-05-29T06:39:31.921Z,32.44
2023-05-29T06:40:31.978Z,32.45
2023-05-29T06:41:32.046Z,32.44
2023-05-29T06:42:32.119Z,32.43
2023-05-29T06:43:32.236Z,32.47
2023-05-29T06:44:32.572Z,32.41
2023-05-29T06:45:32.347Z,32.45
2023-05-29T06:46:32.431Z,32.47
2023-05-29T06:47:32.553Z,32.51
2023-05-29T06:48:32.501Z,32.49
2023-05-29T06:49:32.565Z,32.41
2023-05-29T06:50:32.614Z,32.50
2023-05-29T06:51:32.685Z,32.46
2023-05-29T06:52:32.736Z,32.51
2023-05-29T06:53:32.801Z,32.46
2023-05-29T06:54:32.858Z,32.53
2023-05-29T06:55:32.912Z,32.49
2023-05-29T06:56:32.965Z,32.45
2023-05-29T06:57:33.036Z,32.48
2023-05-29T06:58:33.041Z,32.45
2023-05-29T06:59:33.153Z,32.45
2023-05-29T07:00:33.233Z,32.48
2023-05-29T07:01:33.326Z,32.44
2023-05-29T07:02:33.350Z,32.48
2023-05-29T07:03:33.426Z,32.44
2023-05-29T07:04:33.400Z,32.44
2023-05-29T07:05:33.454Z,32.44
2023-05-29T07:06:33.438Z,32.65
2023-05-29T07:07:33.504Z,32.37
2023-05-29T07:08:33.576Z,32.45
2023-05-29T07:09:33.619Z,32.37
2023-05-29T07:10:33.641Z,32.41
2023-05-29T07:11:33.640Z,32.42
2023-05-29T07:12:33.696Z,32.63
2023-05-29T07:13:33.739Z,32.43
2023-05-29T07:14:33.817Z,32.37
2023-05-29T07:15:33.821Z,32.39
2023-05-29T07:16:33.930Z,32.33
2023-05-29T07:17:33.957Z,32.32
2023-05-29T07:18:33.885Z,32.33
2023-05-29T07:19:34.082Z,32.29
2023-05-29T07:20:33.977Z,32.13
2023-05-29T07:21:34.021Z,32.27
2023-05-29T07:22:34.020Z,32.32
2023-05-29T07:23:34.052Z,32.35
2023-05-29T07:24:34.090Z,32.39
2023-05-29T07:25:34.066Z,32.42
2023-05-29T07:26:34.146Z,32.75
2023-05-29T07:27:34.158Z,32.56
2023-05-29T07:28:34.172Z,32.42
2023-05-29T07:29:34.215Z,32.28
2023-05-29T07:30:34.212Z,32.31
2023-05-29T07:31:34.292Z,32.59
2023-05-29T07:32:34.243Z,32.70
2023-05-29T07:33:34.281Z,32.57
2023-05-29T07:34:34.353Z,32.61
2023-05-29T07:35:34.319Z,32.57
2023-05-29T07:36:34.325Z,32.56
2023-05-29T07:37:34.335Z,32.56
2023-05-29T07:38:34.282Z,32.51
2023-05-29T07:39:34.320Z,32.36
2023-05-29T07:40:34.308Z,32.56
2023-05-29T07:41:34.347Z,32.53
2023-05-29T07:42:34.357Z,32.52
2023-05-29T07:43:34.327Z,32.47
2023-05-29T07:44:34.337Z,32.39
2023-05-29T07:45:34.321Z,32.39
2023-05-29T07:46:34.437Z,32.40
2023-05-29T07:47:34.346Z,32.33
2023-05-29T07:48:34.328Z,32.21
2023-05-29T07:49:34.367Z,32.06
2023-05-29T07:50:34.347Z,32.31
2023-05-29T07:51:34.385Z,32.22
2023-05-29T07:52:34.389Z,32.19
2023-05-29T07:53:34.499Z,32.21
2023-05-29T07:54:34.532Z,32.15
2023-05-29T07:55:34.638Z,32.11
2023-05-29T07:56:34.631Z,32.18
2023-05-29T07:57:34.781Z,32.21
2023-05-29T07:58:34.774Z,32.19
2023-05-29T07:59:34.911Z,32.16
2023-05-29T08:00:34.869Z,32.13
2023-05-29T08:01:34.899Z,32.19
2023-05-29T08:02:35.087Z,32.12
2023-05-29T08:03:35.165Z,32.06
2023-05-29T08:04:35.120Z,32.11
2023-05-29T08:05:35.144Z,32.09
2023-05-29T08:06:35.435Z,32.06
2023-05-29T08:07:35.276Z,32.06
2023-05-29T08:08:35.329Z,32.02
2023-05-29T08:09:35.388Z,32.04
2023-05-29T08:10:35.466Z,31.96
2023-05-29T08:11:35.508Z,31.99
2023-05-29T08:12:35.592Z,31.96
2023-05-29T08:13:35.632Z,32.01
2023-05-29T08:14:35.686Z,32.00
2023-05-29T08:15:35.763Z,32.01
2023-05-29T08:16:35.850Z,32.02
2023-05-29T08:17:35.886Z,32.04
2023-05-29T08:18:35.909Z,32.13
2023-05-29T08:19:35.979Z,32.09
2023-05-29T08:20:36.098Z,32.00
2023-05-29T08:21:36.048Z,32.09
2023-05-29T08:22:36.084Z,31.82
2023-05-29T08:23:36.164Z,31.97
2023-05-29T08:24:36.220Z,32.09
2023-05-29T08:25:36.267Z,32.03
2023-05-29T08:26:36.280Z,31.92
2023-05-29T08:27:36.327Z,31.98
2023-05-29T08:28:36.412Z,32.06
2023-05-29T08:29:36.478Z,32.07
2023-05-29T08:30:36.513Z,31.95
2023-05-29T08:31:36.605Z,32.02
2023-05-29T08:32:36.634Z,32.09
2023-05-29T08:33:36.676Z,32.02
2023-05-29T08:34:36.759Z,32.10
2023-05-29T08:35:36.764Z,31.91
2023-05-29T08:36:36.804Z,31.92
2023-05-29T08:37:36.874Z,32.01
2023-05-29T08:38:36.930Z,31.95
2023-05-29T08:39:36.989Z,31.86
2023-05-29T08:40:37.000Z,31.86
2023-05-29T08:41:37.033Z,31.81
2023-05-29T08:42:37.073Z,31.82
2023-05-29T08:43:37.130Z,31.79
2023-05-29T08:44:37.163Z,31.84
2023-05-29T08:45:37.192Z,31.80
2023-05-29T08:46:37.270Z,31.73
2023-05-29T08:47:37.291Z,31.70
2023-05-29T08:48:37.251Z,31.76
2023-05-29T08:49:37.298Z,31.67
2023-05-29T08:50:37.351Z,31.70
2023-05-29T08:51:37.370Z,31.84
2023-05-29T08:52:37.341Z,31.66
2023-05-29T08:53:37.401Z,31.79
2023-05-29T08:54:37.434Z,31.66
2023-05-29T08:55:37.417Z,31.74
2023-05-29T08:56:37.507Z,31.72
2023-05-29T08:57:37.457Z,31.77
2023-05-29T08:58:37.484Z,31.56
2023-05-29T08:59:37.604Z,31.65
2023-05-29T09:00:37.550Z,31.53
2023-05-29T09:01:37.664Z,31.47
2023-05-29T09:02:37.631Z,31.56
2023-05-29T09:03:37.600Z,31.67
2023-05-29T09:04:37.582Z,31.66
2023-05-29T09:05:37.629Z,31.58
2023-05-29T09:06:37.588Z,31.61
2023-05-29T09:07:37.589Z,31.66
2023-05-29T09:08:37.601Z,31.73
2023-05-29T09:09:37.602Z,31.55
2023-05-29T09:10:38.902Z,31.56
2023-05-29T09:11:37.618Z,31.52
2023-05-29T09:12:37.689Z,31.45
2023-05-29T09:13:37.706Z,31.37
2023-05-29T09:14:37.684Z,31.38
2023-05-29T09:15:37.669Z,31.37
2023-05-29T09:16:37.659Z,31.45
2023-05-29T09:17:37.746Z,31.33
2023-05-29T09:18:37.665Z,31.30
2023-05-29T09:19:37.676Z,31.36
2023-05-29T09:20:37.767Z,31.39
2023-05-29T09:21:37.692Z,31.39
2023-05-29T09:22:37.733Z,31.28
2023-05-29T09:23:37.710Z,31.43
2023-05-29T09:24:37.672Z,31.28
2023-05-29T09:25:37.696Z,31.43
2023-05-29T09:26:37.731Z,31.26
2023-05-29T09:27:37.667Z,31.40
2023-05-29T09:28:37.673Z,31.26
2023-05-29T09:29:37.698Z,31.16
2023-05-29T09:30:37.674Z,31.21
2023-05-29T09:31:37.751Z,31.18
2023-05-29T09:32:37.792Z,31.17
2023-05-29T09:33:37.695Z,31.36
2023-05-29T09:34:37.680Z,31.30
2023-05-29T09:35:37.684Z,31.15
2023-05-29T09:36:37.614Z,31.17
2023-05-29T09:37:37.649Z,31.23
2023-05-29T09:38:49.040Z,31.15
2023-05-29T09:39:38.681Z,31.21
2023-05-29T09:40:37.648Z,31.20
2023-05-29T09:41:37.610Z,31.08
2023-05-29T09:42:37.625Z,31.12
2023-05-29T09:43:37.642Z,31.21
2023-05-29T09:44:37.595Z,31.44
2023-05-29T09:45:37.637Z,31.18
2023-05-29T09:46:37.679Z,31.23
2023-05-29T09:47:37.551Z,30.85
2023-05-29T09:48:37.603Z,30.98
2023-05-29T09:49:37.579Z,30.84
2023-05-29T09:50:37.543Z,31.02
2023-05-29T09:51:37.526Z,31.05
2023-05-29T09:52:37.540Z,31.16
2023-05-29T09:53:37.529Z,31.18
2023-05-29T09:54:37.538Z,31.13
2023-05-29T09:55:37.554Z,30.92
2023-05-29T09:56:37.559Z,30.90
2023-05-29T09:57:37.514Z,31.03
2023-05-29T09:58:37.506Z,30.81
2023-05-29T09:59:37.488Z,30.79
2023-05-29T10:00:37.479Z,30.70
2023-05-29T10:01:37.534Z,30.61
2023-05-29T10:02:37.519Z,30.67
2023-05-29T10:03:37.527Z,30.71
2023-05-29T10:04:37.480Z,30.63
2023-05-29T10:05:37.720Z,30.66
2023-05-29T10:06:37.471Z,30.66
2023-05-29T10:07:37.556Z,30.61
2023-05-29T10:08:37.537Z,30.67
2023-05-29T10:09:37.590Z,30.66
2023-05-29T10:10:37.598Z,30.50
2023-05-29T10:11:37.606Z,30.63
2023-05-29T10:12:37.691Z,30.95
2023-05-29T10:13:37.834Z,30.85
2023-05-29T10:14:37.769Z,30.77
2023-05-29T10:15:37.941Z,30.73
2023-05-29T10:16:37.950Z,30.62
2023-05-29T10:17:37.934Z,30.62
2023-05-29T10:18:37.911Z,30.70
2023-05-29T10:19:37.943Z,30.59
2023-05-29T10:20:38.048Z,30.62
2023-05-29T10:21:38.043Z,30.59
2023-05-29T10:22:38.090Z,30.53
2023-05-29T10:23:38.152Z,30.51
2023-05-29T10:24:38.160Z,30.70
2023-05-29T10:25:38.257Z,30.35
2023-05-29T10:26:38.303Z,30.89
2023-05-29T10:27:38.358Z,30.66
2023-05-29T10:28:38.391Z,30.94
2023-05-29T10:29:38.743Z,30.84
2023-05-29T10:30:38.495Z,30.55
2023-05-29T10:31:38.555Z,30.57
2023-05-29T10:32:38.648Z,30.57
2023-05-29T10:33:38.645Z,30.46
2023-05-29T10:34:38.684Z,30.49
2023-05-29T10:35:38.735Z,30.43
2023-05-29T10:36:38.756Z,30.42
2023-05-29T10:37:38.816Z,30.38
2023-05-29T10:38:38.820Z,30.39
2023-05-29T10:39:38.879Z,30.58
2023-05-29T10:40:38.944Z,30.47
2023-05-29T10:41:38.995Z,30.32
2023-05-29T10:42:39.169Z,30.24
2023-05-29T10:43:39.110Z,30.27
2023-05-29T10:44:39.137Z,30.35
2023-05-29T10:45:39.217Z,30.31
2023-05-29T10:46:39.352Z,30.24
2023-05-29T10:47:39.371Z,30.12
2023-05-29T10:48:39.341Z,30.43
2023-05-29T10:49:39.453Z,30.20
2023-05-29T10:50:39.524Z,30.31
2023-05-29T10:51:39.530Z,30.10
2023-05-29T10:52:39.633Z,30.14
2023-05-29T10:53:39.680Z,30.17
2023-05-29T10:54:39.738Z,30.06
2023-05-29T10:55:39.828Z,30.08
2023-05-29T10:56:39.864Z,30.19
2023-05-29T10:57:39.930Z,30.33
2023-05-29T10:58:40.027Z,29.85
2023-05-29T10:59:40.039Z,29.90
2023-05-29T11:00:40.143Z,29.85
2023-05-29T11:01:40.211Z,29.81
2023-05-29T11:02:40.299Z,29.88
2023-05-29T11:03:40.416Z,29.93
2023-05-29T11:04:40.427Z,30.02
2023-05-29T11:05:40.460Z,30.13
2023-05-29T11:06:40.479Z,29.82
2023-05-29T11:07:40.536Z,29.92
2023-05-29T11:08:40.614Z,29.77
2023-05-29T11:09:40.663Z,29.67
2023-05-29T11:10:40.737Z,29.70
2023-05-29T11:11:40.734Z,29.49
2023-05-29T11:12:40.834Z,29.45
2023-05-29T11:13:40.904Z,29.60
2023-05-29T11:14:40.955Z,29.67
2023-05-29T11:15:40.993Z,29.71
2023-05-29T11:16:41.061Z,29.76
2023-05-29T11:17:41.243Z,29.85
2023-05-29T11:18:41.161Z,29.75
2023-05-29T11:19:41.247Z,29.64
2023-05-29T11:20:41.340Z,29.55
2023-05-29T11:21:41.370Z,29.61
2023-05-29T11:22:41.407Z,29.62
2023-05-29T11:23:41.484Z,29.63
2023-05-29T11:24:41.544Z,29.55
2023-05-29T11:25:41.577Z,29.59
2023-05-29T11:26:41.657Z,29.05
2023-05-29T11:27:41.778Z,29.21
2023-05-29T11:28:41.759Z,29.33
2023-05-29T11:29:41.877Z,29.42
2023-05-29T11:30:41.893Z,29.42
2023-05-29T11:31:42.004Z,29.07
2023-05-29T11:32:42.058Z,28.42
2023-05-29T11:33:42.070Z,28.46
2023-05-29T11:34:42.156Z,28.65
2023-05-29T11:35:42.169Z,28.51
2023-05-29T11:36:42.231Z,28.49
2023-05-29T11:37:42.358Z,28.72
2023-05-29T11:38:42.379Z,28.69
2023-05-29T11:39:42.507Z,28.74
2023-05-29T11:40:42.468Z,28.75
2023-05-29T11:41:42.584Z,28.91
2023-05-29T11:42:42.610Z,28.75
2023-05-29T11:43:42.624Z,28.62
2023-05-29T11:44:42.690Z,28.59
2023-05-29T11:45:42.740Z,28.78
2023-05-29T11:46:42.813Z,28.65
2023-05-29T11:47:42.997Z,28.44
2023-05-29T11:48:42.927Z,28.61
2023-05-29T11:49:43.070Z,27.80
2023-05-29T11:50:43.071Z,27.96
2023-05-29T11:51:43.155Z,28.07
2023-05-29T11:52:43.189Z,28.25
2023-05-29T11:53:43.258Z,28.31
2023-05-29T11:54:43.334Z,28.23
2023-05-29T11:55:43.317Z,28.01
2023-05-29T11:56:43.420Z,28.10
2023-05-29T11:57:43.429Z,27.98
2023-05-29T11:58:43.498Z,27.51
2023-05-29T11:59:44.223Z,27.48
2023-05-29T12:00:43.646Z,27.53
2023-05-29T12:01:43.653Z,27.55
2023-05-29T12:02:43.857Z,27.69
2023-05-29T12:03:43.834Z,27.64
2023-05-29T12:04:43.903Z,27.65
2023-05-29T12:05:43.979Z,27.75
2023-05-29T12:06:44.005Z,27.65
2023-05-29T12:07:44.030Z,27.52
2023-05-29T12:08:44.076Z,27.48
2023-05-29T12:09:44.118Z,27.41
2023-05-29T12:10:44.199Z,27.39
2023-05-29T12:11:44.231Z,27.23
2023-05-29T12:12:44.281Z,27.14
2023-05-29T12:13:44.373Z,27.34
2023-05-29T12:14:44.360Z,27.31
2023-05-29T12:15:44.469Z,27.09
2023-05-29T12:16:46.481Z,27.28
2023-05-29T12:17:44.624Z,27.44
2023-05-29T12:18:44.544Z,27.45
2023-05-29T12:19:44.657Z,27.43
2023-05-29T12:20:44.697Z,27.43
2023-05-29T12:21:44.719Z,27.34
2023-05-29T12:22:44.720Z,27.43
2023-05-29T12:23:44.791Z,27.57
2023-05-29T12:24:44.805Z,27.48
2023-05-29T12:25:44.809Z,27.36
2023-05-29T12:26:44.827Z,27.34
2023-05-29T12:27:44.874Z,27.36
2023-05-29T12:28:44.916Z,27.17
2023-05-29T12:29:44.932Z,27.22
2023-05-29T12:30:44.998Z,27.32
2023-05-29T12:31:45.068Z,27.35
2023-05-29T12:32:45.122Z,27.34
2023-05-29T12:33:45.112Z,27.03
2023-05-29T12:34:45.183Z,26.65
2023-05-29T12:35:45.175Z,26.73
2023-05-29T12:36:45.240Z,26.72
2023-05-29T12:37:45.297Z,26.81
2023-05-29T12:38:45.301Z,26.86
2023-05-29T12:39:45.346Z,26.75
2023-05-29T12:40:45.423Z,26.88
2023-05-29T12:41:45.420Z,26.65
2023-05-29T12:42:45.432Z,26.73
2023-05-29T12:43:45.486Z,26.79
2023-05-29T12:44:45.497Z,26.51
2023-05-29T12:45:45.468Z,26.24
2023-05-29T12:46:45.548Z,26.34
2023-05-29T12:47:45.500Z,26.23
2023-05-29T12:48:45.517Z,26.28
2023-05-29T12:49:45.477Z,26.09
2023-05-29T12:50:45.500Z,26.28
2023-05-29T12:51:45.522Z,26.39
2023-05-29T12:52:45.496Z,26.24
2023-05-29T12:53:45.512Z,26.39
2023-05-29T12:54:45.505Z,26.47